Time;durP1;ratioP1;P1;durP2;ratioP2;P2;SDS_P1;SDS_P2;PMS_P1;PMS_P2;Temp;Humidity;BMP_temperature;BMP_pressure;BME280_temperature;BME280_humidity;BME280_pressure;Samples;Min_cycle;Max_cycle;Signal;HPM_P1;HPM_P2
2022/08/16 00:01:25;;;;;;;;;18.00;17.33;;;;;21.09;75.15;98705.38;6283341;20;3573145;-59
2022/08/16 00:04:01;;;;;;;;;18.67;16.00;;;;;21.11;75.31;98706.03;6280808;20;2483615;-59
2022/08/16 00:06:32;;;;;;;;;20.33;17.00;;;;;20.78;76.50;98719.16;6318125;20;3571065;-59
2022/08/16 00:09:05;;;;;;;;;17.00;15.00;;;;;20.64;78.05;98719.94;6280923;20;2812781;-59
2022/08/16 00:11:34;;;;;;;;;15.00;14.00;;;;;20.47;78.12;98727.38;6286651;20;3517931;-58
2022/08/16 00:14:13;;;;;;;;;18.67;18.67;;;;;20.23;79.62;98725.66;6311131;20;2840078;-59
2022/08/16 00:16:42;;;;;;;;;19.50;17.00;;;;;20.92;76.66;98725.66;6313833;20;2833761;-58
2022/08/16 00:19:34;;;;;;;;;15.33;14.00;;;;;21.11;75.49;98727.00;6288759;20;2492024;-58
2022/08/16 00:22:10;;;;;;;;;16.00;15.00;;;;;21.24;74.69;98730.78;6320275;20;2820348;-59
2022/08/16 00:24:42;;;;;;;;;17.00;16.00;;;;;21.15;74.93;98731.94;6289578;20;2835742;-58
2022/08/16 00:27:15;;;;;;;;;19.33;17.33;;;;;21.26;74.40;98731.47;6288410;20;2841948;-58
2022/08/16 00:29:44;;;;;;;;;16.00;16.00;;;;;20.93;76.18;98721.88;6316451;20;2829446;-58
2022/08/16 00:32:14;;;;;;;;;17.00;16.00;;;;;20.67;76.91;98714.97;6290709;20;3558751;-58
2022/08/16 00:34:46;;;;;;;;;15.00;15.00;;;;;20.48;77.77;98715.41;6286371;20;2806507;-58
2022/08/16 00:37:24;;;;;;;;;17.00;16.00;;;;;20.89;75.10;98721.41;6282149;20;2824238;-58
2022/08/16 00:40:40;;;;;;;;;17.00;16.00;;;;;20.92;75.83;98721.03;6288008;20;2830548;-58
2022/08/16 00:43:26;;;;;;;;;15.00;14.50;;;;;20.80;75.84;98723.38;6288501;20;2811732;-58
2022/08/16 00:46:33;;;;;;;;;16.33;15.00;;;;;21.11;75.18;98729.75;6285239;20;2489879;-58
2022/08/16 00:49:11;;;;;;;;;19.00;15.33;;;;;20.66;77.07;98726.91;6320335;20;3549334;-59
2022/08/16 00:51:50;;;;;;;;;20.50;19.00;;;;;20.54;77.68;98726.50;6318422;20;2837762;-58
2022/08/16 00:54:29;;;;;;;;;19.50;18.00;;;;;20.62;77.50;98725.59;6284352;20;2836745;-58
2022/08/16 00:57:02;;;;;;;;;16.50;16.50;;;;;20.64;77.82;98717.19;6286158;20;2829453;-58
2022/08/16 00:59:36;;;;;;;;;17.00;16.00;;;;;20.79;76.41;98715.38;6287849;20;2825431;-58
2022/08/16 01:02:20;;;;;;;;;15.00;15.00;;;;;20.96;76.34;98716.94;6285839;20;2793059;-58
2022/08/16 01:05:00;;;;;;;;;20.00;18.00;;;;;20.68;77.23;98724.84;6283114;20;2835700;-58
2022/08/16 01:07:42;;;;;;;;;19.00;19.00;;;;;20.35;78.88;98724.19;6285729;20;2833601;-58
2022/08/16 01:10:22;;;;;;;;;16.00;14.50;;;;;20.42;78.65;98719.72;6282705;20;2809678;-58
2022/08/16 01:13:10;;;;;;;;;16.00;16.00;;;;;20.60;78.13;98723.03;6286886;20;2829542;-59
2022/08/16 01:15:51;;;;;;;;;18.00;16.50;;;;;20.33;78.13;98721.66;6282887;20;2835928;-58
2022/08/16 01:18:26;;;;;;;;;16.00;15.00;;;;;20.04;79.84;98721.50;6286173;20;2812819;-59
2022/08/16 01:21:29;;;;;;;;;17.00;17.00;;;;;20.44;78.07;98709.47;6286682;20;2835657;-58
2022/08/16 01:24:23;;;;;;;;;18.00;16.00;;;;;20.34;78.26;98712.44;6287843;20;2833637;-58
2022/08/16 01:27:28;;;;;;;;;18.50;17.00;;;;;20.24;78.37;98714.56;6281334;20;2833594;-58
2022/08/16 01:30:34;;;;;;;;;20.50;17.50;;;;;20.27;78.35;98711.47;6283429;20;2837748;-56
2022/08/16 01:33:19;;;;;;;;;18.00;18.00;;;;;20.27;78.78;98706.00;6285949;20;2837852;-58
2022/08/16 01:36:05;;;;;;;;;18.00;17.00;;;;;20.06;79.20;98709.38;6285333;20;2828682;-58
2022/08/16 01:38:46;;;;;;;;;21.00;18.00;;;;;20.18;78.45;98712.56;6282709;20;2835750;-58
2022/08/16 01:41:29;;;;;;;;;18.67;15.67;;;;;19.67;80.40;98699.38;6289294;20;3559685;-58
2022/08/16 01:43:58;;;;;;;;;18.00;16.50;;;;;19.87;80.38;98710.69;6285045;20;2839821;-58
2022/08/16 01:46:38;;;;;;;;;17.50;16.50;;;;;19.74;80.58;98708.50;6285366;20;2827351;-59
2022/08/16 01:49:17;;;;;;;;;21.00;18.00;;;;;19.88;79.92;98717.84;6286188;20;2844015;-58
2022/08/16 01:51:59;;;;;;;;;21.50;18.00;;;;;19.98;79.58;98711.31;6285059;20;2846118;-59
2022/08/16 01:54:28;;;;;;;;;18.67;16.67;;;;;19.97;79.55;98709.63;6286037;20;3571228;-58
2022/08/16 01:57:00;;;;;;;;;20.00;17.33;;;;;19.69;80.72;98708.19;6283992;20;3575210;-58
2022/08/16 01:59:31;;;;;;;;;21.00;18.00;;;;;20.01;79.35;98705.50;6287096;20;3566983;-58
2022/08/16 02:02:00;;;;;;;;;18.50;15.00;;;;;19.24;81.48;98703.41;6284546;20;2825331;-59
2022/08/16 02:04:32;;;;;;;;;17.50;17.00;;;;;18.57;83.87;98703.63;6285810;20;2839862;-58
2022/08/16 02:07:21;;;;;;;;;19.00;17.00;;;;;18.23;85.23;98709.22;6282865;20;2491959;-58
2022/08/16 02:09:52;;;;;;;;;13.67;13.33;;;;;17.99;86.01;98711.69;6285006;20;3504442;-58
2022/08/16 02:12:27;;;;;;;;;18.00;18.00;;;;;17.92;87.65;98713.38;6320212;20;3570010;-58
2022/08/16 02:15:22;;;;;;;;;17.00;13.00;;;;;17.66;89.18;98707.97;6282267;20;3526301;-58
2022/08/16 02:17:56;;;;;;;;;20.00;17.00;;;;;17.71;89.75;98707.50;6282785;20;2836045;-60
2022/08/16 02:20:33;;;;;;;;;19.33;17.33;;;;;17.76;90.43;98708.69;6284580;20;3568034;-60
2022/08/16 02:23:04;;;;;;;;;17.50;15.00;;;;;17.87;89.89;98706.72;6283394;20;2477361;-60
2022/08/16 02:25:35;;;;;;;;;19.00;17.50;;;;;17.80;89.87;98709.28;6282585;20;2835670;-60
2022/08/16 02:28:23;;;;;;;;;19.50;19.00;;;;;18.43;86.76;98699.69;6288639;20;2841948;-59
2022/08/16 02:30:54;;;;;;;;;14.00;14.00;;;;;18.68;85.63;98703.28;6282356;20;2500297;-59
2022/08/16 02:33:25;;;;;;;;;21.67;17.00;;;;;18.67;86.12;98698.00;6283246;20;2500263;-60
2022/08/16 02:36:15;;;;;;;;;21.00;20.00;;;;;19.00;84.32;98696.13;6313260;20;2835669;-60
2022/08/16 02:39:06;;;;;;;;;18.00;17.00;;;;;19.17;83.40;98702.38;6280481;20;2827335;-60
2022/08/16 02:41:39;;;;;;;;;20.67;19.00;;;;;19.16;82.56;98701.53;6284692;20;2836715;-60
2022/08/16 02:44:11;;;;;;;;;15.00;15.00;;;;;19.20;82.36;98696.63;6317563;20;3540849;-60
2022/08/16 02:46:43;;;;;;;;;18.00;16.00;;;;;18.93;83.55;98696.00;6313671;20;2829518;-60
2022/08/16 02:49:21;;;;;;;;;19.33;18.00;;;;;18.71;84.38;98696.66;6283945;20;3573235;-61
2022/08/16 02:52:11;;;;;;;;;19.67;17.67;;;;;18.40;86.24;98706.34;6284756;20;3573262;-60
2022/08/16 02:54:57;;;;;;;;;19.00;17.50;;;;;18.10;87.42;98704.25;6281733;20;2832746;-60
2022/08/16 02:57:27;;;;;;;;;18.00;18.00;;;;;18.05;88.76;98704.75;6280433;20;2832958;-61
2022/08/16 02:59:55;;;;;;;;;18.50;16.00;;;;;18.02;88.97;98709.69;6283926;20;2826295;-58
2022/08/16 03:02:26;;;;;;;;;22.00;18.00;;;;;18.41;87.56;98718.91;6281833;20;2835681;-58
2022/08/16 03:04:59;;;;;;;;;18.50;16.00;;;;;18.65;85.04;98720.78;6284197;20;2830541;-58
2022/08/16 03:07:29;;;;;;;;;18.00;18.00;;;;;18.30;85.57;98718.38;6281675;20;2833583;-58
2022/08/16 03:10:10;;;;;;;;;18.50;15.00;;;;;18.53;85.03;98716.69;6284588;20;2821110;-59
2022/08/16 03:12:45;;;;;;;;;17.50;16.50;;;;;18.54;84.70;98715.69;6281947;20;2489874;-59
2022/08/16 03:15:24;;;;;;;;;16.50;16.50;;;;;17.94;87.70;98711.34;6280475;20;2822580;-58
2022/08/16 03:17:55;;;;;;;;;21.50;20.50;;;;;18.25;86.92;98715.34;6282118;20;2847130;-58
2022/08/16 03:20:24;;;;;;;;;19.50;19.00;;;;;18.44;85.43;98725.88;6281690;20;2844069;-58
2022/08/16 03:23:00;;;;;;;;;20.00;19.00;;;;;18.32;85.93;98725.34;6285098;20;2835695;-58
2022/08/16 03:25:31;;;;;;;;;20.00;18.00;;;;;18.59;85.32;98732.34;6288304;20;3571066;-58
2022/08/16 03:28:11;;;;;;;;;16.00;14.00;;;;;18.58;85.66;98733.34;6283307;20;2813827;-59
2022/08/16 03:30:40;;;;;;;;;21.00;18.00;;;;;18.06;87.12;98735.47;6282433;20;2833622;-58
2022/08/16 03:33:09;;;;;;;;;21.00;19.00;;;;;18.12;86.82;98730.25;6281228;20;2837772;-58
2022/08/16 03:35:40;;;;;;;;;19.00;18.33;;;;;17.54;90.31;98731.03;6278484;20;3573296;-59
2022/08/16 03:38:14;;;;;;;;;18.00;18.00;;;;;17.97;88.89;98742.75;6277872;20;2831625;-60
2022/08/16 03:41:05;;;;;;;;;18.50;18.50;;;;;18.12;86.85;98745.69;6281421;20;2839894;-59
2022/08/16 03:43:53;;;;;;;;;18.00;18.00;;;;;18.03;86.21;98747.53;6285271;20;3571086;-59
2022/08/16 03:46:22;;;;;;;;;15.00;15.00;;;;;17.41;89.33;98738.75;6315473;20;3542974;-59
2022/08/16 03:49:12;;;;;;;;;17.50;17.00;;;;;17.77;87.94;98742.13;6310787;20;2825313;-59
2022/08/16 03:51:43;;;;;;;;;19.00;18.00;;;;;17.34;89.47;98747.53;6279856;20;2839900;-59
2022/08/16 03:54:12;;;;;;;;;20.33;18.67;;;;;17.70;88.69;98751.97;6315773;20;3577341;-58
2022/08/16 03:56:41;;;;;;;;;17.50;17.00;;;;;18.20;85.95;98757.44;6280430;20;2485784;-59
2022/08/16 03:59:26;;;;;;;;;21.00;19.50;;;;;17.69;88.99;98758.38;6282298;20;2842000;-59
2022/08/16 04:01:59;;;;;;;;;18.00;17.00;;;;;18.06;87.59;98763.50;6279271;20;2491895;-61
2022/08/16 04:04:30;;;;;;;;;18.00;17.00;;;;;18.50;85.41;98763.25;6284276;20;2837740;-60
2022/08/16 04:07:04;;;;;;;;;18.00;18.00;;;;;18.55;84.52;98758.16;6281571;20;2839880;-55
2022/08/16 04:09:35;;;;;;;;;18.50;17.50;;;;;17.99;87.24;98757.88;6285185;20;2835682;-58
2022/08/16 04:12:08;;;;;;;;;18.00;16.50;;;;;18.69;85.01;98750.34;6280988;20;2831525;-59
2022/08/16 04:14:39;;;;;;;;;20.00;17.50;;;;;18.79;84.36;98759.22;6278160;20;2829465;-59
2022/08/16 04:17:16;;;;;;;;;18.50;17.50;;;;;18.84;84.19;98762.28;6278499;20;2819002;-58
2022/08/16 04:19:46;;;;;;;;;20.00;18.00;;;;;18.63;85.79;98760.03;6284064;20;2839856;-59
2022/08/16 04:22:19;;;;;;;;;19.33;18.67;;;;;18.48;86.90;98768.00;6310264;20;3577424;-59
2022/08/16 04:24:54;;;;;;;;;20.00;19.00;;;;;18.68;86.03;98773.13;6278366;20;2823609;-58
2022/08/16 04:27:28;;;;;;;;;16.00;15.00;;;;;18.91;84.36;98779.63;6282270;20;2815953;-57
2022/08/16 04:30:00;;;;;;;;;16.67;16.67;;;;;18.59;85.30;98772.28;6285450;20;3571087;-56
2022/08/16 04:32:31;;;;;;;;;20.00;18.33;;;;;18.62;85.58;98772.78;6272895;20;2844077;-54
2022/08/16 04:35:07;;;;;;;;;20.50;20.50;;;;;18.62;85.88;98770.06;6306865;20;2839264;-53
2022/08/16 04:37:47;;;;;;;;;19.33;19.33;;;;;18.55;86.39;98765.47;6283538;20;3569108;-51
2022/08/16 04:40:24;;;;;;;;;20.00;17.00;;;;;18.47;86.33;98770.91;6279868;20;2835701;-51
2022/08/16 04:42:54;;;;;;;;;16.50;15.00;;;;;18.67;86.02;98765.97;6277314;20;2807565;-52
2022/08/16 04:45:24;;;;;;;;;22.00;19.00;;;;;19.22;83.25;98770.75;6279803;20;2836712;-52
2022/08/16 04:48:05;;;;;;;;;16.00;16.00;;;;;19.15;83.35;98764.31;6281054;20;2823265;-50
2022/08/16 04:50:35;;;;;;;;;21.00;18.00;;;;;19.38;83.26;98780.75;6281503;20;2828367;-54
2022/08/16 04:53:10;;;;;;;;;21.50;18.00;;;;;19.24;84.13;98776.88;6281064;20;2828923;-51
2022/08/16 04:55:43;;;;;;;;;22.00;18.50;;;;;19.89;80.59;98779.47;6281267;20;2844021;-51
2022/08/16 04:58:12;;;;;;;;;18.50;18.50;;;;;19.32;82.05;98774.16;6280262;20;2842017;-55
2022/08/16 05:01:01;;;;;;;;;21.33;18.33;;;;;19.12;83.88;98767.38;6285021;20;3577364;-51
2022/08/16 05:03:36;;;;;;;;;23.67;21.00;;;;;19.71;81.03;98771.53;6284861;20;2837753;-52
2022/08/16 05:06:11;;;;;;;;;24.33;18.00;;;;;19.82;80.00;98773.00;6316626;20;2848330;-51
2022/08/16 05:08:39;;;;;;;;;20.00;20.00;;;;;20.03;79.09;98774.28;6320152;20;3581467;-57
2022/08/16 05:11:17;;;;;;;;;22.67;22.00;;;;;20.29;78.70;98784.91;6283659;20;2838819;-55
2022/08/16 05:13:49;;;;;;;;;19.00;16.00;;;;;20.46;78.00;98772.00;6317067;20;3556470;-56
2022/08/16 05:16:26;;;;;;;;;22.00;20.67;;;;;20.72;77.12;98780.75;6317519;20;3585629;-56
2022/08/16 05:19:01;;;;;;;;;19.00;19.00;;;;;22.49;71.46;98783.84;6285701;20;2711749;-56
2022/08/16 05:21:31;;;;;;;;;19.33;17.33;;;;;22.89;69.05;98790.56;6321136;20;3570778;-57
2022/08/16 05:24:07;;;;;;;;;18.50;17.00;;;;;23.33;67.16;98792.25;6283355;20;2831492;-56
2022/08/16 05:26:36;;;;;;;;;19.33;19.33;;;;;23.02;68.01;98797.25;6288085;20;3561690;-55
2022/08/16 05:29:11;;;;;;;;;20.00;20.00;;;;;22.65;70.14;98793.69;6284614;20;2839899;-55
2022/08/16 05:31:42;;;;;;;;;24.67;20.67;;;;;22.23;71.32;98800.78;6318963;20;3572152;-57
2022/08/16 05:34:20;;;;;;;;;23.50;20.50;;;;;21.88;72.42;98797.72;6285939;20;2844055;-53
2022/08/16 05:36:51;;;;;;;;;19.50;18.00;;;;;21.66;74.07;98800.38;6281945;20;2832597;-55
2022/08/16 05:39:20;;;;;;;;;21.33;19.33;;;;;21.73;73.63;98800.47;6288082;20;3564271;-58
2022/08/16 05:41:52;;;;;;;;;22.00;22.00;;;;;22.43;71.35;98810.03;6280780;20;2844124;-55
2022/08/16 05:44:23;;;;;;;;;18.67;18.67;;;;;22.64;71.38;98813.88;6318687;20;3563908;-58
2022/08/16 05:47:00;;;;;;;;;22.00;17.00;;;;;23.31;69.19;98813.50;6285170;20;2839856;-57
2022/08/16 05:49:30;;;;;;;;;17.33;16.67;;;;;23.63;68.82;98814.81;6284176;20;3573251;-58
2022/08/16 05:52:12;;;;;;;;;20.00;17.00;;;;;23.58;67.56;98809.06;6282428;20;2835681;-59
2022/08/16 05:54:48;;;;;;;;;18.67;18.67;;;;;23.74;67.58;98804.38;6318921;20;3575740;-59
2022/08/16 05:57:29;;;;;;;;;22.67;21.33;;;;;24.08;67.61;98795.28;6280815;20;2836706;-56
2022/08/16 06:00:10;;;;;;;;;21.33;20.33;;;;;23.15;69.73;98800.09;6319423;20;3569007;-53
2022/08/16 06:02:42;;;;;;;;;21.00;17.67;;;;;21.96;74.70;98796.78;6286614;20;3564817;-54
2022/08/16 06:05:11;;;;;;;;;20.67;19.33;;;;;22.25;73.85;98787.72;6285865;20;3565972;-54
2022/08/16 06:07:43;;;;;;;;;20.33;19.67;;;;;21.89;76.15;98792.09;6283166;20;3563829;-54
2022/08/16 06:10:26;;;;;;;;;18.67;18.67;;;;;21.83;76.21;98795.59;6284400;20;2835675;-57
2022/08/16 06:13:00;;;;;;;;;21.00;18.33;;;;;22.23;74.43;98798.03;6315796;20;3575254;-54
2022/08/16 06:15:29;;;;;;;;;20.67;19.33;;;;;22.24;74.42;98799.72;6280435;20;3577313;-52
2022/08/16 06:17:58;;;;;;;;;19.50;19.50;;;;;22.78;73.01;98802.03;6284601;20;2833563;-54
2022/08/16 06:20:29;;;;;;;;;22.33;19.00;;;;;22.83;72.22;98801.44;6286234;20;3577336;-52
2022/08/16 06:23:04;;;;;;;;;15.00;13.50;;;;;23.22;70.50;98801.84;6284980;20;2806514;-51
2022/08/16 06:25:45;;;;;;;;;17.00;16.00;;;;;23.32;70.31;98812.44;6287384;20;3558643;-54
2022/08/16 06:28:21;;;;;;;;;20.00;18.67;;;;;23.62;68.74;98809.53;6286474;20;3577322;-53
2022/08/16 06:31:07;;;;;;;;;16.00;14.00;;;;;23.48;70.11;98810.47;6283816;20;2491918;-54
2022/08/16 06:33:40;;;;;;;;;22.00;19.67;;;;;23.52;70.04;98811.78;6314931;20;3566976;-62
2022/08/16 06:36:14;;;;;;;;;14.50;14.00;;;;;24.36;66.98;98819.06;6279181;20;2815274;-62
2022/08/16 06:38:43;;;;;;;;;16.67;16.67;;;;;24.38;66.36;98827.91;6288242;20;3566923;-62
2022/08/16 06:41:24;;;;;;;;;17.50;15.00;;;;;24.13;67.28;98811.97;6285328;20;2822243;-62
2022/08/16 06:43:55;;;;;;;;;22.00;18.50;;;;;24.88;64.52;98823.03;6284698;20;2839841;-62
2022/08/16 06:46:36;;;;;;;;;20.00;18.00;;;;;26.13;61.28;98828.78;6313547;20;2835693;-62
2022/08/16 06:49:13;;;;;;;;;18.00;17.00;;;;;33.17;43.43;98854.09;6287723;20;3570022;-62
2022/08/16 06:51:42;;;;;;;;;18.67;15.00;;;;;32.71;42.32;98848.81;6281586;20;3546487;-62
2022/08/16 06:54:16;;;;;;;;;16.33;14.67;;;;;35.17;37.63;98868.25;6313568;20;2483652;-62
2022/08/16 06:56:45;;;;;;;;;15.67;15.33;;;;;35.16;38.09;98877.75;6311177;20;2483593;-62
2022/08/16 06:59:13;;;;;;;;;16.00;14.00;;;;;33.67;38.29;98869.59;6318902;20;3513802;-63
2022/08/16 07:01:42;;;;;;;;;14.00;14.00;;;;;36.25;35.43;98882.28;6317099;20;2631546;-62
2022/08/16 07:04:22;;;;;;;;;15.00;14.00;;;;;36.25;33.82;98876.69;6315033;20;3525256;-62
2022/08/16 07:07:04;;;;;;;;;15.50;13.00;;;;;33.19;39.49;98868.56;6313450;20;2809614;-62
2022/08/16 07:09:37;;;;;;;;;12.33;12.00;;;;;34.83;36.43;98869.81;6286635;20;3523137;-62
2022/08/16 07:12:06;;;;;;;;;13.00;12.00;;;;;36.86;33.12;98882.09;6316803;20;2483610;-62
2022/08/16 07:14:34;;;;;;;;;12.67;12.67;;;;;36.87;32.54;98878.19;6317924;20;3513851;-62
2022/08/16 07:17:06;;;;;;;;;13.00;13.00;;;;;37.17;31.70;98886.75;6314313;20;2798215;-62
2022/08/16 07:19:35;;;;;;;;;11.33;11.33;;;;;36.77;32.20;98883.00;6287615;20;3533574;-62
2022/08/16 07:22:25;;;;;;;;;13.00;13.00;;;;;35.96;33.43;98876.44;6313975;20;2785665;-62
2022/08/16 07:25:13;;;;;;;;;12.67;12.33;;;;;33.83;36.81;98871.41;6315707;20;3518967;-62
2022/08/16 07:27:44;;;;;;;;;19.33;14.67;;;;;30.97;43.57;98856.28;6314468;20;3552385;-63
2022/08/16 07:30:17;;;;;;;;;6.00;5.00;;;;;29.92;45.82;98850.66;6295421;20;2741977;-63
2022/08/16 07:33:06;;;;;;;;;8.00;8.00;;;;;30.13;46.60;98862.22;6310801;20;3467966;-63
2022/08/16 07:35:36;;;;;;;;;16.33;13.00;;;;;29.17;46.05;98853.16;6315067;20;2483632;-63
2022/08/16 07:38:11;;;;;;;;;12.33;11.00;;;;;28.28;49.19;98855.53;6318567;20;3510677;-63
2022/08/16 07:40:46;;;;;;;;;11.33;11.00;;;;;29.52;46.06;98856.84;6315117;20;2489929;-56
2022/08/16 07:43:36;;;;;;;;;12.00;10.33;;;;;29.58;45.84;98856.97;6314119;20;3513770;-57
2022/08/16 07:46:09;;;;;;;;;12.50;12.50;;;;;29.76;44.89;98862.44;6279708;20;2789834;-58
2022/08/16 07:48:58;;;;;;;;;12.33;12.33;;;;;29.85;44.33;98861.00;6311722;20;3515873;-58
2022/08/16 07:51:35;;;;;;;;;12.00;12.00;;;;;29.81;44.64;98859.81;6285520;20;2487751;-58
2022/08/16 07:54:10;;;;;;;;;12.67;12.67;;;;;29.92;44.26;98858.13;6312918;20;2489939;-59
2022/08/16 07:56:48;;;;;;;;;13.33;13.33;;;;;30.39;43.70;98860.88;6316758;20;3528435;-59
2022/08/16 07:59:17;;;;;;;;;14.00;12.00;;;;;29.86;44.86;98857.16;6312066;20;2784710;-59
2022/08/16 08:01:46;;;;;;;;;12.67;12.67;;;;;30.15;44.49;98848.97;6281846;20;3516902;-60
2022/08/16 08:04:20;;;;;;;;;15.67;13.67;;;;;28.77;46.73;98845.41;6284146;20;3535655;-60
2022/08/16 08:06:50;;;;;;;;;12.00;12.00;;;;;28.81;46.98;98843.88;6312206;20;3526361;-60
2022/08/16 08:09:19;;;;;;;;;11.67;11.67;;;;;29.49;45.77;98843.50;6281492;20;3511777;-61
2022/08/16 08:11:49;;;;;;;;;12.50;11.50;;;;;29.20;46.14;98844.38;6313090;20;2785678;-60
2022/08/16 08:14:28;;;;;;;;;12.33;11.33;;;;;30.51;43.64;98847.84;6278544;20;3502293;-60
2022/08/16 08:16:58;;;;;;;;;14.00;12.00;;;;;30.54;43.30;98854.81;6316958;20;3519999;-60
2022/08/16 08:19:28;;;;;;;;;15.67;13.00;;;;;30.46;43.21;98847.72;6318098;20;3511669;-59
2022/08/16 08:21:57;;;;;;;;;14.00;11.33;;;;;30.37;43.34;98857.50;6313662;20;3520100;-55
2022/08/16 08:24:34;;;;;;;;;13.00;10.67;;;;;31.41;40.82;98856.56;6284196;20;2483770;-57
2022/08/16 08:27:07;;;;;;;;;12.33;12.33;;;;;30.76;43.25;98850.31;6315284;20;3501367;-59
2022/08/16 08:29:37;;;;;;;;;10.67;10.67;;;;;31.05;41.69;98847.56;6312016;20;3500227;-59
2022/08/16 08:32:10;;;;;;;;;11.00;11.00;;;;;31.31;41.48;98850.78;6316942;20;2483611;-57
2022/08/16 08:35:00;;;;;;;;;13.33;11.00;;;;;31.22;41.53;98855.91;6316714;20;2488548;-59
2022/08/16 08:37:34;;;;;;;;;12.00;10.00;;;;;30.91;41.74;98848.94;6319623;20;3392938;-58
2022/08/16 08:40:27;;;;;;;;;11.33;11.00;;;;;31.46;41.50;98849.16;6316875;20;3520047;-58
2022/08/16 08:42:58;;;;;;;;;13.67;10.67;;;;;31.78;40.65;98844.94;6290974;20;2484087;-59
2022/08/16 08:45:41;;;;;;;;;12.33;11.33;;;;;31.66;40.33;98848.66;6321168;20;2483570;-59
2022/08/16 08:48:17;;;;;;;;;12.67;11.00;;;;;32.14;39.48;98851.91;6320970;20;2483733;-58
2022/08/16 08:51:08;;;;;;;;;12.50;10.50;;;;;32.33;38.47;98849.69;6318129;20;2791114;-59
2022/08/16 08:53:38;;;;;;;;;9.00;9.00;;;;;32.35;36.75;98847.50;6289307;20;2747250;-55
2022/08/16 08:56:07;;;;;;;;;11.67;10.67;;;;;32.61;36.82;98853.44;6317102;20;3515940;-59
2022/08/16 08:58:53;;;;;;;;;13.00;10.33;;;;;32.36;37.93;98846.38;6315821;20;3517962;-58
2022/08/16 09:01:33;;;;;;;;;7.33;7.33;;;;;32.29;37.63;98840.19;6295945;20;2746692;-59
2022/08/16 09:04:11;;;;;;;;;10.67;10.67;;;;;32.01;38.39;98839.22;6321485;20;3509654;-59
2022/08/16 09:06:45;;;;;;;;;10.33;10.33;;;;;31.90;38.72;98842.94;6316971;20;3512758;-59
2022/08/16 09:09:14;;;;;;;;;11.00;10.67;;;;;32.49;37.41;98847.97;6290397;20;3514888;-59
2022/08/16 09:11:46;;;;;;;;;10.00;10.00;;;;;31.64;37.91;98845.28;6320951;20;2483624;-59
2022/08/16 09:14:32;;;;;;;;;10.00;8.00;;;;;31.63;38.93;98843.63;6315288;20;3479376;-59
2022/08/16 09:17:01;;;;;;;;;8.33;8.33;;;;;32.97;36.68;98852.75;6322231;20;2484019;-58
2022/08/16 09:19:49;;;;;;;;;11.00;10.00;;;;;32.56;36.73;98849.47;6322903;20;3514809;-56
2022/08/16 09:22:27;;;;;;;;;9.67;9.00;;;;;33.36;35.79;98852.63;6317170;20;3479418;-55
2022/08/16 09:24:55;;;;;;;;;8.33;8.33;;;;;32.70;36.95;98854.63;6324357;20;2754420;-59
2022/08/16 09:27:39;;;;;;;;;13.00;12.00;;;;;32.94;36.65;98847.72;6314203;20;3522193;-58
2022/08/16 09:30:25;;;;;;;;;11.00;9.67;;;;;32.22;37.11;98833.97;6285393;20;3500257;-58
2022/08/16 09:33:06;;;;;;;;;11.00;11.00;;;;;32.51;36.52;98837.44;6316977;20;3513800;-57
2022/08/16 09:35:36;;;;;;;;;10.00;10.00;;;;;32.97;35.52;98838.00;6289866;20;3502720;-58
2022/08/16 09:38:12;;;;;;;;;9.67;9.33;;;;;33.00;34.29;98829.97;6316544;20;3488212;-57
2022/08/16 09:41:07;;;;;;;;;10.00;10.00;;;;;33.06;34.79;98833.66;6317013;20;2789887;-59
2022/08/16 09:43:43;;;;;;;;;9.33;9.33;;;;;33.94;33.16;98840.84;6315952;20;3486713;-57
2022/08/16 09:46:30;;;;;;;;;11.33;10.33;;;;;33.45;34.63;98837.09;6318239;20;2483624;-57
2022/08/16 09:49:18;;;;;;;;;10.67;9.00;;;;;33.33;34.17;98833.63;6314984;20;3491893;-56
2022/08/16 09:51:52;;;;;;;;;9.33;8.00;;;;;33.72;33.86;98835.41;6321462;20;2483567;-54
2022/08/16 09:54:25;;;;;;;;;12.00;11.00;;;;;34.20;33.07;98830.72;6318150;20;2483603;-59
2022/08/16 09:57:01;;;;;;;;;13.33;11.00;;;;;33.88;32.56;98834.41;6315295;20;3510656;-53
2022/08/16 09:59:30;;;;;;;;;4.00;4.00;;;;;33.75;33.63;98832.91;6319530;20;2747122;-58
2022/08/16 10:02:06;;;;;;;;;10.00;8.67;;;;;33.59;32.86;98825.56;6315020;20;3484625;-60
2022/08/16 10:04:57;;;;;;;;;8.67;8.67;;;;;33.72;31.99;98829.84;6316115;20;3470059;-57
2022/08/16 10:07:29;;;;;;;;;9.00;9.00;;;;;33.81;32.47;98823.50;6311375;20;3467970;-54
2022/08/16 10:10:13;;;;;;;;;8.33;8.33;;;;;33.90;31.77;98837.75;6313747;20;3454396;-53
2022/08/16 10:13:11;;;;;;;;;9.33;9.33;;;;;33.33;32.39;98828.06;6318635;20;3485656;-51
2022/08/16 10:15:46;;;;;;;;;10.00;10.00;;;;;33.82;32.76;98822.38;6317587;20;2790056;-51
2022/08/16 10:18:22;;;;;;;;;12.00;11.00;;;;;34.09;31.36;98819.53;6309772;20;3509918;-54
2022/08/16 10:21:14;;;;;;;;;11.33;9.33;;;;;34.16;32.16;98810.09;6318051;20;3500253;-53
2022/08/16 10:23:44;;;;;;;;;10.00;8.67;;;;;34.48;30.93;98815.53;6311345;20;3489880;-56
2022/08/16 10:26:13;;;;;;;;;9.67;9.67;;;;;34.61;30.63;98812.28;6315392;20;3495040;-51
2022/08/16 10:29:04;;;;;;;;;10.67;10.67;;;;;33.08;33.79;98813.94;6318557;20;3515837;-52
2022/08/16 10:31:34;;;;;;;;;9.33;9.33;;;;;32.38;34.52;98823.91;6324432;20;2757727;-51
2022/08/16 10:34:13;;;;;;;;;15.00;10.33;;;;;32.83;34.31;98820.88;6318517;20;2484223;-50
2022/08/16 10:37:01;;;;;;;;;12.00;12.00;;;;;32.60;34.46;98830.34;6316800;20;2491901;-50
2022/08/16 10:39:30;;;;;;;;;14.00;11.00;;;;;32.03;35.21;98825.09;6314509;20;3513878;-53
2022/08/16 10:42:12;;;;;;;;;15.33;14.67;;;;;31.97;35.74;98815.03;6316771;20;3514258;-60
2022/08/16 10:44:42;;;;;;;;;12.33;11.33;;;;;31.61;36.92;98822.75;6315484;20;3513777;-59
2022/08/16 10:47:21;;;;;;;;;12.67;11.00;;;;;31.39;37.50;98826.31;6317226;20;2485696;-59
2022/08/16 10:49:52;;;;;;;;;24.33;16.67;;;;;30.84;47.09;98841.63;6314298;20;3587774;-59
2022/08/16 10:52:21;;;;;;;;;14.00;13.00;;;;;25.59;75.26;98819.72;6312031;20;2791081;-51
2022/08/16 10:54:51;;;;;;;;;17.33;15.00;;;;;24.32;76.24;98818.59;6284696;20;3547135;-57
2022/08/16 10:57:41;;;;;;;;;13.00;13.00;;;;;24.18;77.93;98817.69;6320450;20;2783783;-53
2022/08/16 11:00:14;;;;;;;;;12.67;12.00;;;;;24.30;78.55;98810.59;6314639;20;2491936;-52
2022/08/16 11:02:51;;;;;;;;;12.33;11.33;;;;;24.04;82.16;98804.94;6315803;20;3518950;-56
2022/08/16 11:05:42;;;;;;;;;13.33;12.67;;;;;24.28;79.90;98807.19;6281840;20;2491963;-59
2022/08/16 11:08:27;;;;;;;;;12.00;12.00;;;;;24.66;77.32;98806.72;6316891;20;2483583;-59
2022/08/16 11:11:06;;;;;;;;;14.00;13.00;;;;;24.76;75.67;98803.59;6318332;20;2486056;-59
2022/08/16 11:13:48;;;;;;;;;12.67;11.00;;;;;25.14;73.00;98805.75;6314324;20;3505687;-59
2022/08/16 11:16:27;;;;;;;;;12.33;12.33;;;;;25.25;71.89;98801.56;6313623;20;3510858;-60
2022/08/16 11:19:18;;;;;;;;;15.33;12.67;;;;;25.26;70.97;98797.78;6317015;20;2788844;-60
2022/08/16 11:21:47;;;;;;;;;11.67;9.33;;;;;25.40;71.36;98804.94;6313880;20;3501307;-60
2022/08/16 11:24:39;;;;;;;;;14.67;10.00;;;;;25.27;76.53;98800.28;6317834;20;2792002;-62
2022/08/16 11:27:21;;;;;;;;;13.33;13.33;;;;;25.77;75.87;98800.66;6312414;20;2483566;-57
2022/08/16 11:29:55;;;;;;;;;19.67;14.00;;;;;26.09;78.31;98805.50;6314036;20;2483681;-58
2022/08/16 11:32:27;;;;;;;;;13.00;13.00;;;;;26.46;71.90;98801.97;6313457;20;2483625;-57
2022/08/16 11:35:06;;;;;;;;;12.67;11.33;;;;;27.10;69.39;98810.31;6316219;20;3512877;-59
2022/08/16 11:38:01;;;;;;;;;14.00;10.00;;;;;27.35;67.25;98813.94;6314101;20;2483671;-58
2022/08/16 11:40:57;;;;;;;;;10.00;10.00;;;;;27.63;68.51;98815.41;6316172;20;2483692;-58
2022/08/16 11:43:33;;;;;;;;;12.00;11.50;;;;;27.51;68.52;98818.06;6316096;20;2678484;-57
2022/08/16 11:46:10;;;;;;;;;12.67;12.33;;;;;28.55;64.60;98817.44;6316657;20;3508738;-58